N551JL KRDU-KMYR
Flight info
| Callsign | N551JL |
|---|---|
| Flight time | 0h 34m |
| Altitude | 14000 |
| Route | HOOKZ5 DAWTS |
| Aircraft | BE20/L-SBGRY/S |
Departure
| Time | 2026-04-28 22:00 |
|---|---|
| Airport | Raleigh-Durham International Airport (KRDU) |
Arrival
| Time | 2026-04-28 22:34 |
|---|---|
| Airport | Myrtle Beach International Airport (KMYR) |
| Time | Latitude | Longitude | Altitude | Speed | Heading |
|---|---|---|---|---|---|
| 2026-04-28 21:45 | 35.88013 | -78.78325 | 432 ft | 0 kts | 44° |
| 2026-04-28 21:54 | 35.88016 | -78.78321 | 432 ft | 2 kts | 44° |
| 2026-04-28 21:54 | 35.87999 | -78.78278 | 427 ft | 10 kts | 127° |
| 2026-04-28 21:54 | 35.87960 | -78.78198 | 431 ft | 6 kts | 125° |
| 2026-04-28 21:54 | 35.87991 | -78.78143 | 431 ft | 13 kts | 45° |
| 2026-04-28 21:55 | 35.88052 | -78.78067 | 426 ft | 11 kts | 44° |
| 2026-04-28 21:55 | 35.88130 | -78.77971 | 430 ft | 20 kts | 46° |
| 2026-04-28 21:55 | 35.88229 | -78.77862 | 431 ft | 21 kts | 26° |
| 2026-04-28 21:55 | 35.88362 | -78.77812 | 431 ft | 17 kts | 339° |
| 2026-04-28 21:56 | 35.88463 | -78.77929 | 431 ft | 23 kts | 315° |
| 2026-04-28 21:56 | 35.88571 | -78.78063 | 422 ft | 22 kts | 312° |
| 2026-04-28 21:56 | 35.88693 | -78.78204 | 428 ft | 20 kts | 314° |
| 2026-04-28 21:56 | 35.88772 | -78.78258 | 422 ft | 7 kts | 39° |
| 2026-04-28 21:57 | 35.88834 | -78.78183 | 419 ft | 18 kts | 43° |
| 2026-04-28 21:57 | 35.88883 | -78.78125 | 417 ft | 9 kts | 51° |
| 2026-04-28 21:57 | 35.88954 | -78.78034 | 416 ft | 21 kts | 46° |
| 2026-04-28 21:57 | 35.89023 | -78.77872 | 420 ft | 24 kts | 47° |
| 2026-04-28 21:58 | 35.89153 | -78.77718 | 420 ft | 20 kts | 34° |
| 2026-04-28 21:58 | 35.89267 | -78.77685 | 417 ft | 19 kts | 311° |
| 2026-04-28 21:58 | 35.89355 | -78.77794 | 414 ft | 14 kts | 294° |
| 2026-04-28 21:58 | 35.89327 | -78.77870 | 421 ft | 13 kts | 225° |
| 2026-04-28 21:59 | 35.89159 | -78.78077 | 413 ft | 68 kts | 224° |
| 2026-04-28 21:59 | 35.88675 | -78.78661 | 537 ft | 117 kts | 225° |
| 2026-04-28 21:59 | 35.88029 | -78.79416 | 992 ft | 140 kts | 225° |
| 2026-04-28 22:00 | 35.86432 | -78.80936 | 2272 ft | 158 kts | 190° |
| 2026-04-28 22:00 | 35.85289 | -78.80846 | 2764 ft | 169 kts | 179° |
| 2026-04-28 22:00 | 35.84089 | -78.80948 | 3278 ft | 178 kts | 193° |
| 2026-04-28 22:00 | 35.82824 | -78.81219 | 3771 ft | 190 kts | 195° |
| 2026-04-28 22:01 | 35.81501 | -78.81521 | 4282 ft | 197 kts | 194° |
| 2026-04-28 22:01 | 35.80133 | -78.81824 | 4793 ft | 203 kts | 194° |
| 2026-04-28 22:01 | 35.78735 | -78.82135 | 5287 ft | 207 kts | 194° |
| 2026-04-28 22:01 | 35.77307 | -78.82449 | 5783 ft | 209 kts | 195° |
| 2026-04-28 22:02 | 35.75870 | -78.82766 | 6290 ft | 210 kts | 195° |
| 2026-04-28 22:02 | 35.74425 | -78.83086 | 6772 ft | 212 kts | 196° |
| 2026-04-28 22:02 | 35.72975 | -78.83406 | 7252 ft | 212 kts | 196° |
| 2026-04-28 22:02 | 35.71517 | -78.83728 | 7723 ft | 213 kts | 196° |
| 2026-04-28 22:03 | 35.70056 | -78.84051 | 8214 ft | 214 kts | 196° |
| 2026-04-28 22:03 | 35.68585 | -78.84376 | 8711 ft | 215 kts | 197° |
| 2026-04-28 22:03 | 35.67105 | -78.84702 | 9211 ft | 217 kts | 197° |
| 2026-04-28 22:03 | 35.65613 | -78.85030 | 9724 ft | 218 kts | 197° |
| 2026-04-28 22:04 | 35.64117 | -78.85360 | 10212 ft | 219 kts | 197° |
| 2026-04-28 22:04 | 35.62609 | -78.85692 | 10678 ft | 221 kts | 197° |
| 2026-04-28 22:04 | 35.61085 | -78.86028 | 11149 ft | 223 kts | 197° |
| 2026-04-28 22:04 | 35.59557 | -78.86364 | 11626 ft | 225 kts | 197° |
| 2026-04-28 22:05 | 35.58006 | -78.86705 | 12114 ft | 227 kts | 196° |
| 2026-04-28 22:05 | 35.56445 | -78.87049 | 12600 ft | 229 kts | 196° |
| 2026-04-28 22:05 | 35.54868 | -78.87396 | 13107 ft | 231 kts | 196° |
| 2026-04-28 22:05 | 35.53271 | -78.87746 | 13619 ft | 234 kts | 196° |
| 2026-04-28 22:06 | 35.51661 | -78.88101 | 14109 ft | 236 kts | 196° |
| 2026-04-28 22:06 | 35.50038 | -78.88457 | 14570 ft | 238 kts | 196° |
| 2026-04-28 22:06 | 35.48394 | -78.88818 | 14976 ft | 245 kts | 196° |
| 2026-04-28 22:06 | 35.46648 | -78.89208 | 14997 ft | 264 kts | 195° |
| 2026-04-28 22:07 | 35.44797 | -78.89615 | 15003 ft | 275 kts | 195° |
| 2026-04-28 22:07 | 35.42869 | -78.89933 | 15000 ft | 283 kts | 192° |
| 2026-04-28 22:07 | 35.40928 | -78.90256 | 14998 ft | 287 kts | 193° |
| 2026-04-28 22:07 | 35.38936 | -78.90601 | 14982 ft | 290 kts | 193° |
| 2026-04-28 22:08 | 35.36926 | -78.90939 | 14979 ft | 292 kts | 192° |
| 2026-04-28 22:08 | 35.34909 | -78.91271 | 14977 ft | 293 kts | 192° |
| 2026-04-28 22:08 | 35.32895 | -78.91606 | 14976 ft | 293 kts | 193° |
| 2026-04-28 22:08 | 35.30867 | -78.91945 | 14973 ft | 293 kts | 193° |
| 2026-04-28 22:09 | 35.28843 | -78.92277 | 14974 ft | 293 kts | 191° |
| 2026-04-28 22:09 | 35.26794 | -78.92220 | 14974 ft | 297 kts | 176° |
| 2026-04-28 22:09 | 35.24742 | -78.91866 | 14971 ft | 298 kts | 176° |
| 2026-04-28 22:09 | 35.22679 | -78.91520 | 14958 ft | 299 kts | 176° |
| 2026-04-28 22:10 | 35.20614 | -78.91179 | 14962 ft | 300 kts | 176° |
| 2026-04-28 22:10 | 35.18536 | -78.90834 | 14961 ft | 301 kts | 176° |
| 2026-04-28 22:10 | 35.16467 | -78.90488 | 14962 ft | 301 kts | 176° |
| 2026-04-28 22:10 | 35.14389 | -78.90141 | 14963 ft | 301 kts | 176° |
| 2026-04-28 22:11 | 35.12315 | -78.89796 | 14960 ft | 301 kts | 176° |
| 2026-04-28 22:11 | 35.10240 | -78.89451 | 14960 ft | 301 kts | 176° |
| 2026-04-28 22:11 | 35.08164 | -78.89105 | 14959 ft | 301 kts | 176° |
| 2026-04-28 22:11 | 35.06089 | -78.88760 | 14978 ft | 301 kts | 176° |
| 2026-04-28 22:12 | 35.04012 | -78.88415 | 14981 ft | 301 kts | 176° |
| 2026-04-28 22:12 | 35.01935 | -78.88070 | 14980 ft | 301 kts | 176° |
| 2026-04-28 22:12 | 34.99862 | -78.87726 | 14981 ft | 301 kts | 176° |
| 2026-04-28 22:12 | 34.97798 | -78.87578 | 14975 ft | 294 kts | 189° |
| 2026-04-28 22:13 | 34.95757 | -78.87779 | 14978 ft | 294 kts | 189° |
| 2026-04-28 22:13 | 34.93708 | -78.87966 | 14978 ft | 295 kts | 189° |
| 2026-04-28 22:13 | 34.91657 | -78.88147 | 14979 ft | 296 kts | 189° |
| 2026-04-28 22:13 | 34.89601 | -78.88334 | 14980 ft | 296 kts | 189° |
| 2026-04-28 22:14 | 34.87544 | -78.88523 | 14981 ft | 296 kts | 189° |
| 2026-04-28 22:14 | 34.85483 | -78.88712 | 14980 ft | 297 kts | 189° |
| 2026-04-28 22:14 | 34.83429 | -78.88898 | 14981 ft | 297 kts | 189° |
| 2026-04-28 22:14 | 34.81370 | -78.89086 | 14980 ft | 297 kts | 189° |
| 2026-04-28 22:15 | 34.79308 | -78.89273 | 14981 ft | 297 kts | 189° |
| 2026-04-28 22:15 | 34.77244 | -78.89461 | 14985 ft | 297 kts | 189° |
| 2026-04-28 22:15 | 34.75191 | -78.89648 | 14986 ft | 297 kts | 189° |
| 2026-04-28 22:15 | 34.73126 | -78.89835 | 14981 ft | 296 kts | 188° |
| 2026-04-28 22:16 | 34.71066 | -78.90023 | 14986 ft | 297 kts | 188° |
| 2026-04-28 22:16 | 34.69008 | -78.90209 | 14986 ft | 297 kts | 188° |
| 2026-04-28 22:16 | 34.66948 | -78.90396 | 14986 ft | 297 kts | 188° |
| 2026-04-28 22:16 | 34.64884 | -78.90584 | 14986 ft | 297 kts | 188° |
| 2026-04-28 22:17 | 34.62821 | -78.90770 | 14984 ft | 297 kts | 188° |
| 2026-04-28 22:17 | 34.60768 | -78.90957 | 14985 ft | 297 kts | 188° |
| 2026-04-28 22:17 | 34.58697 | -78.91144 | 14985 ft | 297 kts | 188° |
| 2026-04-28 22:17 | 34.56635 | -78.91331 | 14984 ft | 297 kts | 188° |
| 2026-04-28 22:18 | 34.54578 | -78.91517 | 14985 ft | 297 kts | 188° |
| 2026-04-28 22:18 | 34.52523 | -78.91703 | 14986 ft | 297 kts | 188° |
| 2026-04-28 22:18 | 34.50459 | -78.91889 | 14986 ft | 297 kts | 188° |
| 2026-04-28 22:18 | 34.48390 | -78.92076 | 14978 ft | 297 kts | 188° |
| 2026-04-28 22:19 | 34.46334 | -78.92262 | 14983 ft | 297 kts | 188° |
| 2026-04-28 22:19 | 34.44965 | -78.92385 | 14981 ft | 297 kts | 188° |
| 2026-04-28 22:19 | 34.42899 | -78.92571 | 14988 ft | 297 kts | 188° |
| 2026-04-28 22:19 | 34.40830 | -78.92758 | 14987 ft | 297 kts | 188° |
| 2026-04-28 22:20 | 34.38771 | -78.92944 | 14986 ft | 297 kts | 188° |
| 2026-04-28 22:20 | 34.36700 | -78.93130 | 14987 ft | 297 kts | 188° |
| 2026-04-28 22:20 | 34.34643 | -78.93316 | 14987 ft | 298 kts | 188° |
| 2026-04-28 22:20 | 34.32573 | -78.93502 | 14995 ft | 297 kts | 188° |
| 2026-04-28 22:21 | 34.30506 | -78.93688 | 14991 ft | 297 kts | 188° |
| 2026-04-28 22:21 | 34.28461 | -78.93872 | 14990 ft | 297 kts | 188° |
| 2026-04-28 22:21 | 34.26382 | -78.94059 | 14990 ft | 297 kts | 188° |
| 2026-04-28 22:21 | 34.24314 | -78.94244 | 14990 ft | 297 kts | 188° |
| 2026-04-28 22:22 | 34.22256 | -78.94429 | 14997 ft | 297 kts | 188° |
| 2026-04-28 22:22 | 34.20186 | -78.94615 | 14995 ft | 298 kts | 188° |
| 2026-04-28 22:22 | 34.18126 | -78.94800 | 14995 ft | 298 kts | 188° |
| 2026-04-28 22:22 | 34.16053 | -78.94986 | 14995 ft | 298 kts | 188° |
| 2026-04-28 22:23 | 34.13993 | -78.95170 | 14995 ft | 298 kts | 188° |
| 2026-04-28 22:23 | 34.11948 | -78.95353 | 15000 ft | 298 kts | 188° |
| 2026-04-28 22:23 | 34.09846 | -78.95541 | 14999 ft | 298 kts | 188° |
| 2026-04-28 22:23 | 34.07800 | -78.95724 | 14998 ft | 298 kts | 188° |
| 2026-04-28 22:24 | 34.05741 | -78.95909 | 14998 ft | 298 kts | 188° |
| 2026-04-28 22:24 | 34.03661 | -78.96095 | 14919 ft | 301 kts | 188° |
| 2026-04-28 22:24 | 34.01525 | -78.96289 | 14384 ft | 315 kts | 187° |
| 2026-04-28 22:24 | 33.99326 | -78.96486 | 13778 ft | 317 kts | 187° |
| 2026-04-28 22:25 | 33.97335 | -78.96661 | 13178 ft | 320 kts | 187° |
| 2026-04-28 22:25 | 33.95107 | -78.96859 | 12533 ft | 322 kts | 187° |
| 2026-04-28 22:25 | 33.92864 | -78.97059 | 11775 ft | 318 kts | 187° |
| 2026-04-28 22:25 | 33.90707 | -78.97249 | 10998 ft | 304 kts | 187° |
| 2026-04-28 22:26 | 33.88636 | -78.97433 | 10229 ft | 293 kts | 187° |
| 2026-04-28 22:26 | 33.86639 | -78.97468 | 9404 ft | 285 kts | 176° |
| 2026-04-28 22:26 | 33.84727 | -78.97024 | 8583 ft | 280 kts | 171° |
| 2026-04-28 22:26 | 33.82833 | -78.96544 | 7778 ft | 277 kts | 171° |
| 2026-04-28 22:27 | 33.80952 | -78.96076 | 6989 ft | 275 kts | 171° |
| 2026-04-28 22:27 | 33.79087 | -78.95612 | 6207 ft | 273 kts | 171° |
| 2026-04-28 22:27 | 33.77235 | -78.95147 | 5382 ft | 270 kts | 171° |
| 2026-04-28 22:27 | 33.75394 | -78.94687 | 4422 ft | 271 kts | 171° |
| 2026-04-28 22:28 | 33.73545 | -78.94225 | 3421 ft | 271 kts | 171° |
| 2026-04-28 22:28 | 33.71704 | -78.93765 | 2421 ft | 268 kts | 171° |
| 2026-04-28 22:28 | 33.69929 | -78.93318 | 2007 ft | 244 kts | 171° |
| 2026-04-28 22:28 | 33.68387 | -78.92924 | 1986 ft | 211 kts | 168° |
| 2026-04-28 22:29 | 33.67227 | -78.92055 | 1984 ft | 191 kts | 129° |
| 2026-04-28 22:29 | 33.66862 | -78.90639 | 1988 ft | 173 kts | 86° |
| 2026-04-28 22:29 | 33.67021 | -78.89227 | 1992 ft | 169 kts | 79° |
| 2026-04-28 22:29 | 33.67588 | -78.88021 | 1997 ft | 170 kts | 33° |
| 2026-04-28 22:30 | 33.68683 | -78.87667 | 2014 ft | 162 kts | 353° |
| 2026-04-28 22:30 | 33.69829 | -78.87753 | 2009 ft | 170 kts | 352° |
| 2026-04-28 22:30 | 33.71080 | -78.87855 | 2017 ft | 188 kts | 352° |
| 2026-04-28 22:30 | 33.72399 | -78.87984 | 2015 ft | 197 kts | 352° |
| 2026-04-28 22:31 | 33.73766 | -78.88143 | 2010 ft | 196 kts | 352° |
| 2026-04-28 22:31 | 33.75117 | -78.88322 | 2011 ft | 194 kts | 351° |
| 2026-04-28 22:31 | 33.76431 | -78.88588 | 2004 ft | 189 kts | 336° |
| 2026-04-28 22:31 | 33.77464 | -78.89513 | 2008 ft | 186 kts | 313° |
| 2026-04-28 22:32 | 33.78172 | -78.90744 | 2005 ft | 183 kts | 284° |
| 2026-04-28 22:32 | 33.78067 | -78.92260 | 1913 ft | 191 kts | 245° |
| 2026-04-28 22:32 | 33.77213 | -78.93491 | 1778 ft | 194 kts | 223° |
| 2026-04-28 22:32 | 33.76027 | -78.94339 | 1632 ft | 199 kts | 200° |
| 2026-04-28 22:33 | 33.74670 | -78.94598 | 1602 ft | 199 kts | 179° |
| 2026-04-28 22:33 | 33.73334 | -78.94274 | 1469 ft | 199 kts | 165° |
| 2026-04-28 22:33 | 33.71981 | -78.93808 | 907 ft | 200 kts | 167° |
| 2026-04-28 22:33 | 33.70657 | -78.93508 | 496 ft | 175 kts | 173° |
| 2026-04-28 22:34 | 33.69680 | -78.93239 | 204 ft | 122 kts | 174° |
| 2026-04-28 22:34 | 33.68932 | -78.93071 | 42 ft | 99 kts | 172° |
| 2026-04-28 22:34 | 33.68339 | -78.92927 | 28 ft | 64 kts | 163° |
| 2026-04-28 22:34 | 33.68106 | -78.92865 | 26 ft | 16 kts | 164° |
| 2026-04-28 22:35 | 33.68071 | -78.92880 | 27 ft | 3 kts | 286° |
| 2026-04-28 22:35 | 33.68048 | -78.93039 | 26 ft | 31 kts | 251° |
| 2026-04-28 22:35 | 33.67988 | -78.93183 | 26 ft | 6 kts | 188° |
| 2026-04-28 22:35 | 33.67882 | -78.93172 | 28 ft | 22 kts | 169° |
| 2026-04-28 22:36 | 33.67729 | -78.93138 | 32 ft | 26 kts | 169° |
| 2026-04-28 22:36 | 33.67523 | -78.93098 | 31 ft | 25 kts | 194° |
| 2026-04-28 22:36 | 33.67426 | -78.93232 | 30 ft | 23 kts | 254° |
| 2026-04-28 22:36 | 33.67410 | -78.93321 | 30 ft | 3 kts | 189° |
| 2026-04-28 22:37 | 33.67398 | -78.93318 | 30 ft | 0 kts | 166° |